Time;durP1;ratioP1;P1;durP2;ratioP2;P2;SDS_P1;SDS_P2;PMS_P1;PMS_P2;Temp;Humidity;BMP_temperature;BMP_pressure;BME280_temperature;BME280_humidity;BME280_pressure;Samples;Min_cycle;Max_cycle;Signal;HPM_P1;HPM_P2
2021/12/02 00:01:11;;;;;;;;;3.50;3.50;;;;;21.23;38.82;99946.59;5083487;27;51194;-43
2021/12/02 00:03:37;;;;;;;;;4.50;3.00;;;;;21.22;38.70;99944.09;5083360;27;51667;-45
2021/12/02 00:06:12;;;;;;;;;3.75;3.25;;;;;21.20;38.69;99947.09;5079573;27;51070;-42
2021/12/02 00:08:38;;;;;;;;;3.00;3.00;;;;;21.20;38.91;99947.09;5078638;27;51016;-45
2021/12/02 00:11:04;;;;;;;;;4.75;3.50;;;;;21.19;38.89;99944.59;5085827;27;51172;-42
2021/12/02 00:13:37;;;;;;;;;2.25;2.25;;;;;21.18;39.03;99935.50;5077970;27;51885;-41
2021/12/02 00:21:26;;;;;;;;;3.00;3.00;;;;;21.16;38.67;99951.44;5082873;27;51035;-42
2021/12/02 00:24:08;;;;;;;;;5.00;4.25;;;;;21.15;39.02;99954.41;5082724;27;51216;-43
2021/12/02 00:26:38;;;;;;;;;3.25;2.00;;;;;21.14;38.73;99950.00;5082154;27;52427;-43
2021/12/02 00:29:07;;;;;;;;;4.75;3.00;;;;;21.14;38.99;99956.34;5076251;27;51273;-43
2021/12/02 00:31:37;;;;;;;;;3.00;3.00;;;;;21.12;38.88;99966.78;5086449;27;51410;-44
2021/12/02 00:34:06;;;;;;;;;3.75;3.75;;;;;21.12;39.16;99972.28;5078700;27;50904;-42
2021/12/02 00:36:34;;;;;;;;;4.00;2.50;;;;;21.09;39.37;99975.53;5079441;27;51344;-43
2021/12/02 00:39:06;;;;;;;;;2.25;1.25;;;;;21.07;39.10;99983.22;5077584;27;51519;-46
2021/12/02 00:41:31;;;;;;;;;3.00;2.25;;;;;21.05;38.70;99974.38;5083936;27;51184;-44
2021/12/02 00:43:58;;;;;;;;;2.00;2.00;;;;;21.03;38.72;99976.50;5094813;27;51717;-43
2021/12/02 00:46:25;;;;;;;;;2.00;2.00;;;;;21.01;39.18;99970.44;5078548;27;51071;-44
2021/12/02 00:48:51;;;;;;;;;3.00;1.00;;;;;20.98;38.83;99974.50;5072577;27;51319;-43
2021/12/02 00:51:19;;;;;;;;;1.50;1.50;;;;;20.95;39.09;99971.44;5081251;27;51164;-43
2021/12/02 00:53:52;;;;;;;;;3.00;1.25;;;;;20.92;38.81;99978.25;5076970;27;53199;-43
2021/12/02 00:56:22;;;;;;;;;1.00;1.00;;;;;20.90;39.04;99979.56;5081824;27;51537;-43
2021/12/02 00:58:49;;;;;;;;;2.00;1.00;;;;;20.88;39.04;99990.00;5078716;27;50990;-44
2021/12/02 01:01:16;;;;;;;;;1.75;1.75;;;;;20.85;39.15;99980.31;5078601;27;51938;-44
2021/12/02 01:03:43;;;;;;;;;2.00;2.00;;;;;20.83;38.80;99981.63;5075217;27;50967;-43
2021/12/02 01:06:08;;;;;;;;;2.00;2.00;;;;;20.79;38.65;99983.22;5074279;27;51261;-45
2021/12/02 01:08:36;;;;;;;;;2.00;2.00;;;;;20.77;38.79;99990.88;5079319;27;51208;-44
2021/12/02 01:11:04;;;;;;;;;3.00;2.00;;;;;20.74;38.83;99997.72;5080020;27;51270;-45
2021/12/02 01:13:29;;;;;;;;;3.75;3.00;;;;;20.71;38.69;99995.44;5077592;27;51721;-46
2021/12/02 01:15:55;;;;;;;;;3.00;2.00;;;;;20.69;38.96;99998.44;5078751;27;51114;-44
2021/12/02 01:18:21;;;;;;;;;1.25;1.25;;;;;20.67;39.25;100002.53;5077827;27;51064;-44
2021/12/02 01:20:49;;;;;;;;;2.00;2.00;;;;;20.65;38.66;100005.53;5079543;27;51846;-42
2021/12/02 01:23:22;;;;;;;;;2.00;2.00;;;;;20.63;38.86;100001.31;5079962;27;51714;-46
2021/12/02 01:25:58;;;;;;;;;2.00;2.00;;;;;20.62;38.83;100007.91;5077449;27;51007;-43
2021/12/02 01:28:24;;;;;;;;;2.50;1.00;;;;;20.60;39.14;100007.31;5077467;27;51357;-46
2021/12/02 01:30:52;;;;;;;;;1.00;1.00;;;;;20.57;38.94;100008.66;5078342;27;51282;-43
2021/12/02 01:33:19;;;;;;;;;2.00;2.00;;;;;20.56;39.03;100011.66;5078181;27;51974;-44
2021/12/02 01:35:49;;;;;;;;;2.00;1.00;;;;;20.54;39.19;100011.88;5083881;27;51164;-46
2021/12/02 01:38:15;;;;;;;;;1.75;1.75;;;;;20.53;39.09;100012.09;5083425;27;51677;-44
2021/12/02 01:40:43;;;;;;;;;1.00;1.00;;;;;20.50;39.18;100007.94;5078973;27;51054;-42
2021/12/02 01:43:14;;;;;;;;;3.50;2.00;;;;;20.48;39.37;100012.84;5079071;27;51105;-44
2021/12/02 01:45:40;;;;;;;;;1.00;1.00;;;;;20.46;39.16;100023.25;5077483;27;51272;-45
2021/12/02 01:48:10;;;;;;;;;2.00;2.00;;;;;20.45;38.94;100038.09;5081150;27;51108;-44
2021/12/02 01:50:39;;;;;;;;;1.00;1.00;;;;;20.43;39.24;100034.75;5078637;27;51227;-43
2021/12/02 01:53:05;;;;;;;;;1.25;1.25;;;;;20.42;39.39;100033.03;5074923;27;51130;-43
2021/12/02 01:55:31;;;;;;;;;1.75;1.00;;;;;20.41;39.36;100047.84;5090255;27;52296;-45
2021/12/02 01:57:59;;;;;;;;;3.00;2.00;;;;;20.39;39.62;100039.84;5080207;27;51032;-42
2021/12/02 02:00:32;;;;;;;;;2.00;1.00;;;;;20.37;39.30;100052.19;5079621;27;51312;-42
2021/12/02 02:03:00;;;;;;;;;2.00;2.00;;;;;20.35;38.83;100055.19;5074097;27;51097;-43
2021/12/02 02:05:25;;;;;;;;;1.25;1.25;;;;;20.34;39.36;100049.91;5078033;27;51606;-43
2021/12/02 02:08:03;;;;;;;;;1.00;1.00;;;;;20.32;38.99;100058.41;5081608;27;51065;-43
2021/12/02 02:10:33;;;;;;;;;2.00;1.00;;;;;20.32;38.78;100057.56;5092552;27;51325;-45
2021/12/02 02:13:04;;;;;;;;;1.25;1.25;;;;;20.30;38.91;100062.47;5079748;27;51846;-43
2021/12/02 02:15:29;;;;;;;;;1.50;1.50;;;;;20.29;39.46;100063.53;5079005;27;51502;-45
2021/12/02 02:17:58;;;;;;;;;3.25;1.75;;;;;20.27;39.48;100069.28;5076763;27;51402;-43
2021/12/02 02:20:55;;;;;;;;;3.25;1.75;;;;;20.26;39.20;100075.88;5078893;27;51214;-44
2021/12/02 02:23:21;;;;;;;;;1.00;1.00;;;;;20.25;39.28;100081.59;5078015;27;52810;-45
2021/12/02 02:25:47;;;;;;;;;1.00;1.00;;;;;20.23;39.06;100084.59;5074567;27;51152;-43
2021/12/02 02:28:13;;;;;;;;;1.25;1.25;;;;;20.22;39.42;100085.69;5077176;27;51118;-43
2021/12/02 02:30:40;;;;;;;;;1.25;1.25;;;;;20.21;39.60;100089.47;5079107;27;51085;-49
2021/12/02 02:33:06;;;;;;;;;1.00;1.00;;;;;20.19;39.46;100095.22;5076632;27;51789;-46
2021/12/02 02:35:31;;;;;;;;;0.25;0.25;;;;;20.18;39.36;100093.53;5078549;27;50980;-44
2021/12/02 02:37:59;;;;;;;;;1.75;1.75;;;;;20.18;39.14;100087.22;5079589;27;51224;-43
2021/12/02 02:40:25;;;;;;;;;1.25;0.50;;;;;20.17;39.46;100096.53;5077525;27;51118;-42
2021/12/02 02:42:56;;;;;;;;;1.00;1.00;;;;;20.14;39.42;100095.13;5076188;27;51466;-44
2021/12/02 02:45:23;;;;;;;;;1.00;1.00;;;;;20.13;38.76;100104.44;5073883;27;51007;-46
2021/12/02 02:47:48;;;;;;;;;2.00;0.50;;;;;20.12;39.35;100105.50;5078509;27;51095;-43
2021/12/02 02:50:15;;;;;;;;;2.00;2.00;;;;;20.12;39.25;100115.69;5086267;27;51004;-43
2021/12/02 02:52:42;;;;;;;;;1.00;1.00;;;;;20.10;39.07;100109.56;5071400;27;51011;-43
2021/12/02 02:55:11;;;;;;;;;1.00;1.00;;;;;20.09;39.07;100114.22;5106978;27;51094;-45
2021/12/02 03:00:29;;;;;;;;;0.50;0.50;;;;;20.05;39.03;100112.19;5074961;27;51094;-43
2021/12/02 03:03:14;;;;;;;;;0.75;0.75;;;;;20.05;39.46;100113.03;5077399;27;51977;-44
2021/12/02 03:08:50;;;;;;;;;0.75;0.75;;;;;20.03;39.23;100112.44;5061786;27;51162;-45
2021/12/02 03:11:18;;;;;;;;;0.25;0.25;;;;;20.03;39.25;100119.84;5076710;27;51081;-42
2021/12/02 03:13:51;;;;;;;;;1.00;1.00;;;;;20.01;39.03;100120.09;5075200;27;52453;-43
2021/12/02 03:19:01;;;;;;;;;1.50;1.50;;;;;19.98;39.27;100125.19;5076548;27;51556;-44
2021/12/02 03:21:28;;;;;;;;;1.00;1.00;;;;;19.98;39.23;100137.03;5079347;27;51165;-43
2021/12/02 03:23:57;;;;;;;;;0.00;0.00;;;;;19.96;39.48;100141.94;5071575;27;51187;-44
2021/12/02 03:26:23;;;;;;;;;1.00;1.00;;;;;19.94;39.37;100141.34;5074106;27;51112;-47
2021/12/02 03:28:51;;;;;;;;;1.00;1.00;;;;;19.95;39.43;100147.69;5075060;27;51117;-44
2021/12/02 03:31:17;;;;;;;;;0.75;0.75;;;;;19.93;39.44;100147.91;5075268;27;51392;-42
2021/12/02 03:33:43;;;;;;;;;1.00;1.00;;;;;19.94;39.14;100157.00;5079910;27;51144;-43
2021/12/02 03:36:10;;;;;;;;;0.00;0.00;;;;;19.91;39.30;100155.56;5077186;27;50943;-44
2021/12/02 03:38:35;;;;;;;;;0.00;0.00;;;;;19.91;39.16;100152.81;5083951;27;51350;-42
2021/12/02 03:41:01;;;;;;;;;0.00;0.00;;;;;19.91;39.14;100151.97;5077284;27;51058;-42
2021/12/02 03:43:32;;;;;;;;;1.00;1.00;;;;;19.89;39.32;100154.94;5074607;27;51958;-42
2021/12/02 03:45:58;;;;;;;;;1.00;1.00;;;;;19.88;39.07;100159.59;5076030;27;51075;-44
2021/12/02 03:48:23;;;;;;;;;1.00;1.00;;;;;19.87;39.24;100146.94;5077179;27;51036;-44
2021/12/02 03:50:48;;;;;;;;;1.00;0.00;;;;;19.86;39.19;100152.66;5075317;27;51242;-44
2021/12/02 03:53:14;;;;;;;;;0.25;0.25;;;;;19.84;39.07;100165.81;5073305;27;51756;-45
2021/12/02 03:55:39;;;;;;;;;0.25;0.25;;;;;19.85;39.53;100165.56;5073916;27;52034;-42
2021/12/02 03:58:04;;;;;;;;;1.50;0.00;;;;;19.84;39.31;100174.88;5075019;27;51121;-43
2021/12/02 04:00:30;;;;;;;;;0.25;0.00;;;;;19.81;39.52;100169.03;5079569;27;51344;-42
2021/12/02 04:02:55;;;;;;;;;0.00;0.00;;;;;19.80;39.46;100181.06;5084139;27;51711;-43
2021/12/02 04:05:20;;;;;;;;;1.00;0.50;;;;;19.80;39.29;100170.94;5077428;27;50834;-43
2021/12/02 04:07:46;;;;;;;;;0.00;0.00;;;;;19.80;38.96;100178.31;5076879;27;51169;-43
2021/12/02 04:10:12;;;;;;;;;0.50;0.00;;;;;19.78;39.15;100181.31;5080234;27;51459;-44
2021/12/02 04:15:39;;;;;;;;;0.00;0.00;;;;;19.77;38.99;100178.81;5071634;27;51374;-42
2021/12/02 04:18:05;;;;;;;;;0.00;0.00;;;;;19.76;39.34;100175.22;5069716;27;50961;-43
2021/12/02 04:20:31;;;;;;;;;0.00;0.00;;;;;19.76;39.27;100168.88;5076062;27;50990;-43
2021/12/02 04:22:57;;;;;;;;;0.00;0.00;;;;;19.75;39.16;100176.28;5075430;27;51126;-43
2021/12/02 04:25:24;;;;;;;;;1.00;0.50;;;;;19.74;39.11;100177.38;5076710;27;51042;-42
2021/12/02 04:27:50;;;;;;;;;0.50;0.50;;;;;19.73;38.81;100174.84;5077670;27;51318;-42
2021/12/02 04:30:19;;;;;;;;;0.00;0.00;;;;;19.73;39.07;100185.84;5070637;27;51138;-41
2021/12/02 04:32:44;;;;;;;;;1.25;0.00;;;;;19.71;39.06;100197.06;5079042;27;54094;-43
2021/12/02 04:35:13;;;;;;;;;1.00;1.00;;;;;19.71;39.04;100197.06;5076133;27;50986;-45
2021/12/02 04:37:39;;;;;;;;;0.75;0.75;;;;;19.70;39.01;100208.31;5076853;27;51042;-47
2021/12/02 04:40:06;;;;;;;;;1.75;0.00;;;;;19.70;38.89;100211.06;5079639;27;51101;-42
2021/12/02 04:42:32;;;;;;;;;0.00;0.00;;;;;19.68;39.21;100210.41;5076401;27;51141;-43
2021/12/02 04:44:58;;;;;;;;;0.00;0.00;;;;;19.67;39.07;100208.75;5075831;27;51231;-46
2021/12/02 04:47:23;;;;;;;;;0.50;0.50;;;;;19.67;39.21;100226.06;5079980;27;50948;-43
2021/12/02 04:49:49;;;;;;;;;2.00;0.00;;;;;19.65;39.02;100222.72;5081743;27;51073;-45
2021/12/02 04:52:14;;;;;;;;;1.25;0.75;;;;;19.65;39.18;100219.13;5075835;27;51094;-43
2021/12/02 04:54:40;;;;;;;;;0.00;0.00;;;;;19.64;39.23;100233.94;5077728;27;51104;-43
2021/12/02 04:57:06;;;;;;;;;0.00;0.00;;;;;19.62;38.93;100234.19;5094637;27;51161;-44
2021/12/02 04:59:31;;;;;;;;;1.00;1.00;;;;;19.63;38.77;100232.28;5081313;27;51104;-44
2021/12/02 05:01:57;;;;;;;;;0.00;0.00;;;;;19.61;39.09;100238.00;5079360;27;52514;-43
2021/12/02 05:04:22;;;;;;;;;0.00;0.00;;;;;19.60;39.01;100242.66;5086623;27;51122;-43
2021/12/02 05:06:47;;;;;;;;;0.00;0.00;;;;;19.61;39.08;100257.25;5075569;27;51048;-45
2021/12/02 05:09:13;;;;;;;;;1.00;1.00;;;;;19.59;38.94;100249.22;5095888;27;51167;-44
2021/12/02 05:11:38;;;;;;;;;2.50;1.00;;;;;19.58;39.14;100249.44;5082678;27;52114;-41
2021/12/02 05:14:05;;;;;;;;;0.00;0.00;;;;;19.57;39.14;100253.25;5077236;27;51442;-43
2021/12/02 05:16:31;;;;;;;;;0.00;0.00;;;;;19.56;38.80;100260.66;5091008;27;51096;-43
2021/12/02 05:18:56;;;;;;;;;0.00;0.00;;;;;19.55;39.01;100253.50;5102817;27;51385;-42
2021/12/02 05:21:22;;;;;;;;;0.00;0.00;;;;;19.55;38.74;100253.50;5094988;27;51633;-45
2021/12/02 05:23:53;;;;;;;;;0.25;0.00;;;;;19.55;39.05;100247.13;5094034;27;51023;-45
2021/12/02 05:26:18;;;;;;;;;1.00;1.00;;;;;19.54;39.02;100251.78;5095891;27;51124;-43
2021/12/02 05:28:43;;;;;;;;;2.00;0.00;;;;;19.53;38.82;100254.75;5076895;27;51069;-44
2021/12/02 05:31:09;;;;;;;;;0.75;0.75;;;;;19.53;38.83;100263.00;5093013;27;51296;-43
2021/12/02 05:33:34;;;;;;;;;1.00;1.00;;;;;19.51;38.90;100257.75;5087971;27;51532;-43
2021/12/02 05:35:59;;;;;;;;;0.00;0.00;;;;;19.50;38.76;100269.81;5076085;27;50999;-44
2021/12/02 05:38:25;;;;;;;;;1.25;0.00;;;;;19.48;38.80;100274.66;5078083;27;51307;-43
2021/12/02 05:40:50;;;;;;;;;0.00;0.00;;;;;19.48;38.90;100274.66;5089683;27;51959;-43
2021/12/02 05:43:16;;;;;;;;;0.00;0.00;;;;;19.48;38.84;100277.41;5070604;27;51118;-43
2021/12/02 05:45:41;;;;;;;;;0.00;0.00;;;;;19.48;38.71;100279.31;5077558;27;51229;-42
2021/12/02 05:48:06;;;;;;;;;0.00;0.00;;;;;19.46;38.70;100271.31;5079324;27;51027;-52
2021/12/02 05:50:32;;;;;;;;;0.25;0.25;;;;;19.46;38.77;100268.56;5098999;27;52025;-43
2021/12/02 05:52:57;;;;;;;;;2.75;1.00;;;;;19.46;38.60;100270.47;5085774;27;50954;-42
2021/12/02 05:55:22;;;;;;;;;0.50;0.00;;;;;19.44;38.73;100267.97;5082734;27;51128;-44
2021/12/02 05:57:48;;;;;;;;;1.00;1.00;;;;;19.43;38.99;100269.03;5089258;27;51174;-44
2021/12/02 06:00:14;;;;;;;;;0.00;0.00;;;;;19.43;38.69;100271.78;5096346;27;51829;-43
2021/12/02 06:02:39;;;;;;;;;0.50;0.50;;;;;19.42;38.90;100275.59;5089396;27;51180;-42
2021/12/02 06:05:06;;;;;;;;;1.25;1.25;;;;;19.42;38.97;100267.34;5080005;27;50968;-44
2021/12/02 06:07:32;;;;;;;;;1.50;0.50;;;;;19.40;38.71;100280.50;5094904;27;51158;-44
2021/12/02 06:09:57;;;;;;;;;0.50;0.00;;;;;19.39;38.55;100284.31;5079790;27;52517;-40
2021/12/02 06:12:23;;;;;;;;;2.00;0.75;;;;;19.38;38.96;100292.75;5082980;27;51062;-45
2021/12/02 06:14:48;;;;;;;;;2.00;1.50;;;;;19.38;38.03;100300.97;5076075;27;51335;-42
2021/12/02 06:17:14;;;;;;;;;6.50;2.00;;;;;19.37;37.81;100296.56;5078148;27;51086;-44
2021/12/02 06:19:39;;;;;;;;;2.00;2.00;;;;;19.33;37.14;100309.91;5077920;27;51069;-46
2021/12/02 06:22:08;;;;;;;;;3.75;2.00;;;;;19.29;36.84;100308.72;5073041;27;51109;-44
2021/12/02 06:24:42;;;;;;;;;3.00;2.00;;;;;19.26;36.42;100315.47;5080823;27;51173;-43
2021/12/02 06:27:08;;;;;;;;;4.50;1.00;;;;;19.21;36.25;100311.75;5073265;27;51397;-43
2021/12/02 06:29:34;;;;;;;;;3.75;2.00;;;;;19.17;36.02;100307.75;5072910;27;51728;-44
2021/12/02 06:31:59;;;;;;;;;2.75;2.75;;;;;19.12;35.68;100297.47;5076023;27;51478;-43
2021/12/02 06:34:24;;;;;;;;;2.50;2.00;;;;;19.12;35.55;100288.38;5073959;27;50967;-44
2021/12/02 06:36:50;;;;;;;;;3.75;1.25;;;;;19.16;35.73;100282.19;5080640;27;51163;-45
2021/12/02 06:39:15;;;;;;;;;3.75;1.25;;;;;19.24;35.99;100287.41;5075280;27;51085;-41
2021/12/02 06:41:41;;;;;;;;;2.75;1.00;;;;;19.31;36.46;100293.69;5078314;27;50990;-41
2021/12/02 06:44:06;;;;;;;;;2.00;0.50;;;;;19.39;37.00;100303.53;5073433;27;51100;-43
2021/12/02 06:46:32;;;;;;;;;2.75;1.00;;;;;19.44;36.91;100309.16;5071088;27;51181;-43
2021/12/02 06:48:57;;;;;;;;;0.75;0.75;;;;;19.51;37.01;100309.09;5080976;27;51038;-44
2021/12/02 06:51:23;;;;;;;;;2.00;1.00;;;;;19.55;37.62;100313.94;5080243;27;51086;-43
2021/12/02 06:53:49;;;;;;;;;1.00;1.00;;;;;19.60;37.65;100327.84;5079087;27;51133;-41
2021/12/02 06:56:15;;;;;;;;;1.00;1.00;;;;;19.66;37.83;100336.22;5079970;27;51125;-41
2021/12/02 06:58:40;;;;;;;;;4.00;1.25;;;;;19.72;37.84;100347.13;5075900;27;51908;-43
2021/12/02 07:01:05;;;;;;;;;2.00;1.25;;;;;19.78;37.92;100342.63;5075634;27;51132;-41
2021/12/02 07:03:31;;;;;;;;;2.00;1.00;;;;;19.83;38.36;100343.63;5073660;27;51066;-42
2021/12/02 07:05:56;;;;;;;;;0.00;0.00;;;;;19.88;38.60;100349.25;5076118;27;51326;-44
2021/12/02 07:08:22;;;;;;;;;1.00;1.00;;;;;19.94;38.56;100355.75;5076687;27;51630;-42
2021/12/02 07:10:47;;;;;;;;;2.50;1.00;;;;;20.00;38.86;100371.31;5084973;27;51182;-42
2021/12/02 07:13:13;;;;;;;;;1.00;1.00;;;;;20.05;38.46;100368.72;5078653;27;51101;-42
2021/12/02 07:15:44;;;;;;;;;2.00;1.00;;;;;20.11;38.60;100377.94;5089720;27;51144;-42
2021/12/02 07:18:13;;;;;;;;;1.00;1.00;;;;;20.16;38.54;100373.44;5075004;27;51940;-42
2021/12/02 07:20:40;;;;;;;;;0.75;0.75;;;;;20.21;38.72;100378.22;5075115;27;51269;-43
2021/12/02 07:23:06;;;;;;;;;3.00;1.25;;;;;20.26;38.62;100380.31;5073480;27;52623;-43
2021/12/02 07:25:32;;;;;;;;;3.00;1.00;;;;;20.31;38.63;100375.78;5077257;27;51297;-42
2021/12/02 07:27:58;;;;;;;;;3.00;1.75;;;;;20.37;38.65;100376.78;5084307;27;52216;-43
2021/12/02 07:30:23;;;;;;;;;2.50;1.50;;;;;20.41;38.56;100373.31;5082416;27;51322;-42
2021/12/02 07:32:54;;;;;;;;;2.00;1.00;;;;;20.46;38.96;100386.41;5068940;27;51265;-44
2021/12/02 07:35:20;;;;;;;;;2.00;2.00;;;;;20.51;39.01;100394.78;5072371;27;51299;-45
2021/12/02 07:37:48;;;;;;;;;3.25;1.75;;;;;20.57;39.09;100399.38;5075848;27;52090;-44
2021/12/02 07:40:15;;;;;;;;;3.25;3.00;;;;;20.62;39.13;100401.41;5071552;27;51116;-43
2021/12/02 07:42:41;;;;;;;;;1.00;1.00;;;;;20.65;38.40;100390.78;5068277;27;51149;-42
2021/12/02 07:45:08;;;;;;;;;1.50;1.50;;;;;20.71;38.68;100389.00;5072754;27;51324;-42
2021/12/02 07:47:37;;;;;;;;;5.00;2.00;;;;;20.75;38.38;100392.97;5077486;27;51168;-43
2021/12/02 07:50:04;;;;;;;;;1.00;1.00;;;;;20.80;38.59;100384.00;5076496;27;51188;-42
2021/12/02 07:52:33;;;;;;;;;3.25;2.00;;;;;20.85;38.50;100387.75;5067284;27;51709;-44
2021/12/02 07:55:03;;;;;;;;;1.75;1.75;;;;;20.92;38.57;100404.13;5068256;27;51117;-43
2021/12/02 07:57:30;;;;;;;;;3.00;2.00;;;;;20.98;38.98;100398.53;5072485;27;53563;-45
2021/12/02 07:59:55;;;;;;;;;2.00;2.00;;;;;21.04;38.57;100402.25;5075660;27;51421;-46
2021/12/02 08:02:22;;;;;;;;;3.00;2.00;;;;;21.04;38.41;100402.25;5062970;27;51228;-42
2021/12/02 08:04:47;;;;;;;;;4.25;2.00;;;;;20.99;38.33;100404.88;5080067;27;52137;-42
2021/12/02 08:07:12;;;;;;;;;2.00;1.00;;;;;20.91;38.23;100407.97;5076902;27;53196;-43
2021/12/02 08:09:38;;;;;;;;;4.75;1.75;;;;;20.82;38.41;100404.72;5088401;27;51117;-44
2021/12/02 08:12:04;;;;;;;;;2.00;2.00;;;;;20.75;38.28;100407.59;5091320;27;50968;-42
2021/12/02 08:14:29;;;;;;;;;2.00;1.00;;;;;20.70;38.32;100412.94;5082002;27;51043;-43
2021/12/02 08:16:55;;;;;;;;;4.00;2.00;;;;;20.65;38.61;100429.31;5077574;27;51977;-43
2021/12/02 08:19:20;;;;;;;;;1.00;1.00;;;;;20.60;38.19;100423.66;5093606;27;50945;-41
2021/12/02 08:21:46;;;;;;;;;1.50;1.00;;;;;20.56;38.54;100424.38;5078149;27;50968;-43
2021/12/02 08:24:12;;;;;;;;;3.00;3.00;;;;;20.53;38.74;100441.31;5089284;27;51225;-42
2021/12/02 08:26:37;;;;;;;;;2.25;2.25;;;;;20.48;39.04;100428.28;5086899;27;51037;-43
2021/12/02 08:29:04;;;;;;;;;2.25;2.25;;;;;20.43;38.78;100429.00;5085662;27;51071;-42
2021/12/02 08:31:29;;;;;;;;;2.00;2.00;;;;;20.40;39.10;100436.81;5086861;27;51135;-43
2021/12/02 08:33:55;;;;;;;;;2.50;1.75;;;;;20.37;39.06;100442.78;5081820;27;50956;-43
2021/12/02 08:36:25;;;;;;;;;2.50;1.75;;;;;20.33;39.06;100450.69;5083863;27;52752;-42
2021/12/02 08:38:51;;;;;;;;;2.00;2.00;;;;;20.30;39.16;100442.03;5096384;27;51034;-44
2021/12/02 08:41:21;;;;;;;;;4.00;1.00;;;;;20.26;39.50;100441.66;5080816;27;51114;-43
2021/12/02 08:43:47;;;;;;;;;5.50;2.00;;;;;20.24;39.20;100448.47;5085866;27;51206;-45
2021/12/02 08:46:14;;;;;;;;;4.75;2.00;;;;;20.22;39.06;100458.81;5074654;27;51456;-42
2021/12/02 08:48:39;;;;;;;;;2.75;1.75;;;;;20.19;39.23;100454.63;5078597;27;51183;-43
2021/12/02 08:51:04;;;;;;;;;2.00;2.00;;;;;20.16;39.35;100458.69;5085483;27;51095;-41
2021/12/02 08:53:30;;;;;;;;;2.50;2.50;;;;;20.14;39.57;100458.09;5078776;27;50989;-42
2021/12/02 08:55:55;;;;;;;;;3.75;2.00;;;;;20.13;39.50;100464.66;5086807;27;52153;-42
2021/12/02 08:58:21;;;;;;;;;1.00;1.00;;;;;20.10;39.75;100456.84;5078793;27;51048;-43
2021/12/02 09:00:46;;;;;;;;;3.25;2.00;;;;;20.08;39.44;100472.75;5090927;27;51036;-42
2021/12/02 09:03:15;;;;;;;;;2.00;2.00;;;;;20.07;39.45;100472.97;5080018;27;51310;-42
2021/12/02 09:05:43;;;;;;;;;0.75;0.75;;;;;20.06;39.48;100472.13;5078019;27;51945;-42
2021/12/02 09:08:09;;;;;;;;;2.00;1.00;;;;;20.05;39.25;100475.13;5088023;27;51025;-41
2021/12/02 09:10:35;;;;;;;;;2.00;2.00;;;;;20.03;39.46;100486.34;5071223;27;51197;-42
2021/12/02 09:13:07;;;;;;;;;3.50;1.75;;;;;20.02;39.29;100478.34;5078601;27;51056;-43
2021/12/02 09:15:33;;;;;;;;;1.75;1.75;;;;;20.01;39.37;100484.88;5081052;27;51964;-44
2021/12/02 09:17:58;;;;;;;;;1.50;1.50;;;;;20.00;39.64;100494.19;5096334;27;51491;-42
2021/12/02 09:20:24;;;;;;;;;2.00;2.00;;;;;19.97;40.14;100490.00;5097103;27;51066;-42
2021/12/02 09:22:49;;;;;;;;;1.75;0.50;;;;;19.97;39.85;100501.00;5097128;27;51113;-41
2021/12/02 09:25:16;;;;;;;;;0.00;0.00;;;;;19.96;39.91;100504.81;5092000;27;50945;-44
2021/12/02 09:27:42;;;;;;;;;1.75;1.75;;;;;19.95;39.83;100507.78;5087779;27;51437;-43
2021/12/02 09:30:08;;;;;;;;;3.25;2.00;;;;;19.93;40.01;100502.53;5104307;27;51173;-42
2021/12/02 09:32:34;;;;;;;;;4.25;2.75;;;;;19.93;39.61;100502.53;5091192;27;51478;-43
2021/12/02 09:35:01;;;;;;;;;1.00;1.00;;;;;19.93;39.96;100510.78;5083287;27;52874;-42
2021/12/02 09:37:26;;;;;;;;;1.50;1.50;;;;;19.92;39.81;100505.50;5090848;27;51168;-43
2021/12/02 09:39:52;;;;;;;;;0.25;0.00;;;;;19.91;39.70;100507.41;5089185;27;51153;-43
2021/12/02 09:42:17;;;;;;;;;2.00;2.00;;;;;19.90;39.99;100516.69;5098285;27;51099;-42
2021/12/02 09:44:46;;;;;;;;;1.25;1.25;;;;;19.89;40.26;100517.78;5110894;27;51730;-42
2021/12/02 09:47:12;;;;;;;;;2.00;2.00;;;;;19.88;39.81;100510.59;5079620;27;51413;-42
2021/12/02 09:49:37;;;;;;;;;6.00;1.50;;;;;19.87;39.98;100525.41;5083266;27;50960;-42
2021/12/02 09:52:08;;;;;;;;;3.00;2.00;;;;;19.85;40.09;100517.41;5095212;27;50990;-42
2021/12/02 09:54:55;;;;;;;;;2.25;2.25;;;;;19.86;39.68;100523.72;5083166;27;52019;-43
2021/12/02 09:57:26;;;;;;;;;2.00;1.75;;;;;19.87;40.01;100526.25;5087371;27;50987;-42
2021/12/02 09:59:53;;;;;;;;;2.50;2.50;;;;;19.86;39.75;100534.72;5097784;27;51116;-43
2021/12/02 10:02:21;;;;;;;;;3.75;2.00;;;;;19.86;39.84;100537.47;5079698;27;51844;-42
2021/12/02 10:07:23;;;;;;;;;1.00;1.00;;;;;19.85;39.93;100530.28;5094349;27;51167;-43
2021/12/02 10:10:16;;;;;;;;;2.00;2.00;;;;;19.85;39.96;100539.38;5111945;27;51021;-42
2021/12/02 10:13:04;;;;;;;;;3.00;2.75;;;;;19.85;39.89;100533.03;5078843;27;51487;-43
2021/12/02 10:15:30;;;;;;;;;3.50;2.50;;;;;19.86;40.01;100535.56;5088312;27;51858;-42
2021/12/02 10:17:58;;;;;;;;;1.50;1.25;;;;;19.87;39.74;100534.50;5104468;27;51160;-42
2021/12/02 10:23:30;;;;;;;;;1.75;1.00;;;;;19.87;39.87;100539.16;5078891;27;51094;-42
2021/12/02 10:26:00;;;;;;;;;1.75;1.75;;;;;19.86;40.10;100529.22;5077605;27;51985;-44
2021/12/02 10:28:41;;;;;;;;;1.75;0.75;;;;;19.85;40.23;100533.88;5072924;27;50972;-42
2021/12/02 10:31:06;;;;;;;;;2.50;2.50;;;;;19.86;40.09;100540.22;5084206;27;51154;-46
2021/12/02 10:33:49;;;;;;;;;4.00;1.25;;;;;19.87;39.96;100529.00;5080288;27;51065;-43
2021/12/02 10:36:31;;;;;;;;;6.00;2.00;;;;;19.88;39.71;100544.41;5091964;27;51046;-41
2021/12/02 10:39:07;;;;;;;;;2.75;1.75;;;;;19.89;39.96;100537.00;5076609;27;51336;-43
2021/12/02 10:41:33;;;;;;;;;4.00;1.00;;;;;19.90;39.89;100535.94;5075267;27;51381;-42
2021/12/02 10:44:05;;;;;;;;;1.25;1.25;;;;;19.91;40.13;100525.81;5095482;27;51014;-45
2021/12/02 10:46:30;;;;;;;;;1.25;1.25;;;;;19.94;39.77;100528.09;5089387;27;50920;-42
2021/12/02 10:48:56;;;;;;;;;3.25;2.00;;;;;19.94;39.65;100514.38;5081135;27;52009;-43
2021/12/02 10:51:40;;;;;;;;;2.25;2.00;;;;;19.95;39.76;100522.38;5075867;28;51505;-42
2021/12/02 10:54:18;;;;;;;;;0.75;0.75;;;;;19.94;39.76;100520.69;5072448;27;51325;-42
2021/12/02 10:56:53;;;;;;;;;1.00;1.00;;;;;19.95;39.31;100522.38;5089894;27;51027;-42
2021/12/02 10:59:29;;;;;;;;;3.50;1.75;;;;;19.97;39.62;100511.16;5075647;27;51112;-44
2021/12/02 11:02:04;;;;;;;;;1.00;1.00;;;;;20.01;39.85;100518.72;5074843;27;51225;-46
2021/12/02 11:04:38;;;;;;;;;2.75;2.00;;;;;20.10;39.42;100505.50;5080785;27;51030;-44
2021/12/02 11:07:09;;;;;;;;;1.00;1.00;;;;;20.18;39.34;100506.06;5066850;27;53820;-48
2021/12/02 11:09:36;;;;;;;;;2.50;1.00;;;;;20.28;39.43;100511.03;5069601;27;51318;-46
2021/12/02 11:12:11;;;;;;;;;3.75;2.50;;;;;20.39;39.28;100512.16;5064307;27;51099;-47
2021/12/02 11:14:41;;;;;;;;;4.00;2.25;;;;;20.49;39.42;100490.50;5085022;27;52930;-44
2021/12/02 11:17:13;;;;;;;;;1.00;1.00;;;;;20.61;39.19;100496.88;5049179;27;54230;-48
2021/12/02 11:19:43;;;;;;;;;4.50;4.50;;;;;20.70;39.23;100501.00;5072637;27;51417;-45
2021/12/02 11:22:15;;;;;;;;;18.75;17.00;;;;;20.79;39.36;100512.53;5083788;27;51927;-47
2021/12/02 11:24:42;;;;;;;;;21.25;19.25;;;;;20.86;39.37;100499.53;5071450;27;51162;-44
2021/12/02 11:27:15;;;;;;;;;23.75;18.00;;;;;20.95;39.35;100497.31;5077031;27;52000;-46
2021/12/02 11:29:59;;;;;;;;;17.75;15.00;;;;;21.04;39.36;100512.41;5094110;27;51296;-44
2021/12/02 11:32:57;;;;;;;;;19.50;16.50;;;;;21.11;39.15;100518.66;5073100;27;51243;-45
2021/12/02 11:35:23;;;;;;;;;13.50;9.75;;;;;21.19;39.23;100517.50;5073259;27;52022;-43
2021/12/02 11:37:52;;;;;;;;;11.00;11.00;;;;;21.26;39.54;100510.00;5072055;27;51677;-45
2021/12/02 11:40:19;;;;;;;;;14.25;10.25;;;;;21.31;39.28;100505.47;5072904;27;51408;-44
2021/12/02 11:42:45;;;;;;;;;14.00;10.50;;;;;21.37;38.92;100503.69;5091999;27;51213;-45
2021/12/02 11:45:13;;;;;;;;;11.50;10.25;;;;;21.41;38.72;100495.78;5074064;27;51100;-44
2021/12/02 11:47:39;;;;;;;;;10.00;6.00;;;;;21.48;39.21;100504.78;5071491;27;51830;-44
2021/12/02 11:50:07;;;;;;;;;7.50;6.25;;;;;21.52;38.51;100505.97;5066379;27;51427;-44